createdAt,value
2022-08-17T00:00:43.678Z,94660.66
2022-08-17T00:01:20.098Z,94657.56
2022-08-17T00:02:25.910Z,94656.20
2022-08-17T00:03:19.966Z,94652.31
2022-08-17T00:04:19.980Z,94650.85
2022-08-17T00:05:19.951Z,94646.97
2022-08-17T00:06:19.945Z,94647.42
2022-08-17T00:07:19.927Z,94653.28
2022-08-17T00:08:19.914Z,94644.41
2022-08-17T00:09:19.909Z,94648.08
2022-08-17T00:10:19.916Z,94644.47
2022-08-17T00:11:19.888Z,94642.77
2022-08-17T00:12:43.356Z,94643.61
2022-08-17T00:13:19.869Z,94637.39
2022-08-17T00:14:19.857Z,94638.69
2022-08-17T00:15:19.847Z,94636.88
2022-08-17T00:16:19.870Z,94638.75
2022-08-17T00:17:19.833Z,94639.44
2022-08-17T00:18:58.370Z,94642.01
2022-08-17T00:19:19.823Z,94635.41
2022-08-17T00:20:19.810Z,94633.59
2022-08-17T00:21:23.898Z,94636.00
2022-08-17T00:22:33.695Z,94626.75
2022-08-17T00:23:19.771Z,94626.23
2022-08-17T00:24:19.771Z,94621.16
2022-08-17T00:25:19.762Z,94620.79
2022-08-17T00:26:44.198Z,94621.59
2022-08-17T00:27:19.756Z,94614.44
2022-08-17T00:28:19.767Z,94622.26
2022-08-17T00:29:20.345Z,94610.75
2022-08-17T00:30:19.727Z,94618.90
2022-08-17T00:31:19.718Z,94616.66
2022-08-17T00:33:13.920Z,94618.31
2022-08-17T00:33:19.702Z,94613.05
2022-08-17T00:34:19.709Z,94621.45
2022-08-17T00:35:19.665Z,94621.95
2022-08-17T00:36:19.668Z,94618.17
2022-08-17T00:37:19.662Z,94621.52
2022-08-17T00:38:19.661Z,94623.58
2022-08-17T00:39:19.655Z,94621.27
2022-08-17T00:40:19.656Z,94622.11
2022-08-17T00:41:19.632Z,94624.34
2022-08-17T00:42:19.613Z,94622.45
2022-08-17T00:43:19.600Z,94622.36
2022-08-17T00:44:19.599Z,94621.52
2022-08-17T00:45:19.580Z,94619.70
2022-08-17T00:46:19.600Z,94616.09
2022-08-17T00:47:19.574Z,94614.38
2022-08-17T00:48:26.190Z,94614.04
2022-08-17T00:49:19.549Z,94614.05
2022-08-17T00:50:19.542Z,94607.14
2022-08-17T00:51:19.546Z,94606.20
2022-08-17T00:52:19.558Z,94605.27
2022-08-17T00:53:19.513Z,94608.53
2022-08-17T00:54:19.505Z,94603.89
2022-08-17T00:55:19.507Z,94612.75
2022-08-17T00:56:19.508Z,94615.59
2022-08-17T00:57:19.489Z,94616.28
2022-08-17T00:58:19.507Z,94611.29
2022-08-17T00:59:19.469Z,94605.69
2022-08-17T01:00:19.460Z,94601.23
2022-08-17T01:01:21.526Z,94605.44
2022-08-17T01:02:19.438Z,94601.05
2022-08-17T01:03:19.440Z,94602.84
2022-08-17T01:04:19.438Z,94595.20
2022-08-17T01:05:19.411Z,94603.02
2022-08-17T01:06:19.399Z,94604.56
2022-08-17T01:07:19.403Z,94608.69
2022-08-17T01:08:19.403Z,94601.12
2022-08-17T01:09:19.371Z,94607.50
2022-08-17T01:10:58.842Z,94604.06
2022-08-17T01:11:19.362Z,94603.72
2022-08-17T01:12:19.365Z,94602.86
2022-08-17T01:13:19.341Z,94606.20
2022-08-17T01:14:19.353Z,94608.48
2022-08-17T01:15:19.323Z,94608.11
2022-08-17T01:16:19.332Z,94608.45
2022-08-17T01:17:19.318Z,94612.13
2022-08-17T01:18:19.317Z,94616.28
2022-08-17T01:19:19.299Z,94616.02
2022-08-17T01:20:19.298Z,94612.84
2022-08-17T01:21:19.267Z,94613.70
2022-08-17T01:22:19.275Z,94612.91
2022-08-17T01:23:20.971Z,94610.06
2022-08-17T01:24:19.261Z,94618.59
2022-08-17T01:25:19.250Z,94615.23
2022-08-17T01:26:19.237Z,94618.03
2022-08-17T01:27:20.596Z,94619.83
2022-08-17T01:28:33.393Z,94618.21
2022-08-17T01:29:19.212Z,94620.36
2022-08-17T01:30:56.523Z,94622.05
2022-08-17T01:31:19.193Z,94627.58
2022-08-17T01:32:19.181Z,94629.11
2022-08-17T01:33:19.181Z,94629.59
2022-08-17T01:34:19.181Z,94635.52
2022-08-17T01:35:19.164Z,94639.39
2022-08-17T01:36:19.145Z,94634.56
2022-08-17T01:37:19.134Z,94630.62
2022-08-17T01:38:19.144Z,94630.62
2022-08-17T01:39:19.112Z,94632.16
2022-08-17T01:40:19.213Z,94632.83
2022-08-17T01:41:19.094Z,94638.73
2022-08-17T01:42:19.095Z,94639.34
2022-08-17T01:43:19.087Z,94640.89
2022-08-17T01:44:19.075Z,94648.02
2022-08-17T01:45:19.079Z,94648.45
2022-08-17T01:46:19.089Z,94653.72
2022-08-17T01:47:19.045Z,94650.03
2022-08-17T01:48:19.040Z,94650.30
2022-08-17T01:49:19.041Z,94651.14
2022-08-17T01:50:19.018Z,94652.02
2022-08-17T01:51:19.027Z,94644.60
2022-08-17T01:52:19.041Z,94644.60
2022-08-17T01:53:19.002Z,94643.55
2022-08-17T01:54:19.001Z,94642.50
2022-08-17T01:55:18.970Z,94643.95
2022-08-17T01:56:18.969Z,94644.81
2022-08-17T01:57:18.964Z,94639.73
2022-08-17T01:58:19.090Z,94635.78
2022-08-17T01:59:18.940Z,94632.28
2022-08-17T02:00:18.944Z,94632.28
2022-08-17T02:01:18.989Z,94628.59
2022-08-17T02:02:30.857Z,94633.37
2022-08-17T02:03:18.902Z,94634.23
2022-08-17T02:04:18.938Z,94638.36
2022-08-17T02:05:18.897Z,94638.87
2022-08-17T02:06:27.650Z,94639.47
2022-08-17T02:07:18.864Z,94643.95
2022-08-17T02:08:20.038Z,94645.41
2022-08-17T02:09:18.853Z,94644.53
2022-08-17T02:10:20.346Z,94647.64
2022-08-17T02:11:18.849Z,94647.45
2022-08-17T02:12:39.174Z,94652.08
2022-08-17T02:13:18.830Z,94648.27
2022-08-17T02:14:18.808Z,94650.36
2022-08-17T02:15:18.798Z,94645.88
2022-08-17T02:16:18.811Z,94647.14
2022-08-17T02:17:18.781Z,94651.34
2022-08-17T02:18:18.778Z,94649.68
2022-08-17T02:19:18.772Z,94657.13
2022-08-17T02:20:18.760Z,94657.73
2022-08-17T02:21:18.765Z,94660.44
2022-08-17T02:22:18.774Z,94670.05
2022-08-17T02:23:18.730Z,94677.34
2022-08-17T02:24:58.026Z,94678.30
2022-08-17T02:25:18.743Z,94685.41
2022-08-17T02:26:25.830Z,94684.63
2022-08-17T02:27:18.705Z,94687.78
2022-08-17T02:28:18.727Z,94688.66
2022-08-17T02:29:18.688Z,94690.27
2022-08-17T02:30:59.308Z,94691.53
2022-08-17T02:31:18.654Z,94685.84
2022-08-17T02:32:25.349Z,94682.55
2022-08-17T02:33:18.659Z,94677.38
2022-08-17T02:34:18.679Z,94677.87
2022-08-17T02:35:20.082Z,94677.85
2022-08-17T02:36:18.617Z,94680.50
2022-08-17T02:37:18.620Z,94680.50
2022-08-17T02:38:18.620Z,94683.27
2022-08-17T02:39:18.601Z,94682.15
2022-08-17T02:40:18.607Z,94685.61
2022-08-17T02:41:18.568Z,94684.75
2022-08-17T02:42:18.569Z,94688.36
2022-08-17T02:43:18.563Z,94685.11
2022-08-17T02:44:39.280Z,94687.23
2022-08-17T02:45:18.553Z,94685.62
2022-08-17T02:46:18.564Z,94684.59
2022-08-17T02:47:18.521Z,94689.42
2022-08-17T02:48:30.521Z,94692.00
2022-08-17T02:49:18.515Z,94690.94
2022-08-17T02:50:18.492Z,94699.53
2022-08-17T02:51:18.498Z,94702.72
2022-08-17T02:52:18.593Z,94706.47
2022-08-17T02:53:18.478Z,94711.70
2022-08-17T02:54:39.226Z,94711.19
2022-08-17T02:55:18.447Z,94710.78
2022-08-17T02:56:18.447Z,94705.66
2022-08-17T02:57:18.434Z,94712.88
2022-08-17T02:58:18.462Z,94719.25
2022-08-17T02:59:18.429Z,94720.44
2022-08-17T03:00:18.420Z,94723.41
2022-08-17T03:01:18.443Z,94729.61
2022-08-17T03:02:18.411Z,94733.48
2022-08-17T03:03:18.381Z,94731.08
2022-08-17T03:04:18.402Z,94731.16
2022-08-17T03:05:18.359Z,94734.69
2022-08-17T03:06:18.361Z,94735.12
2022-08-17T03:07:18.354Z,94732.27
2022-08-17T03:08:18.340Z,94731.06
2022-08-17T03:09:18.330Z,94735.09
2022-08-17T03:10:18.333Z,94729.33
2022-08-17T03:11:18.327Z,94725.89
2022-08-17T03:12:18.317Z,94721.94
2022-08-17T03:13:18.291Z,94728.03
2022-08-17T03:14:18.282Z,94724.33
2022-08-17T03:15:18.294Z,94731.56
2022-08-17T03:16:18.297Z,94725.30
2022-08-17T03:17:18.266Z,94730.39
2022-08-17T03:18:19.367Z,94732.00
2022-08-17T03:19:18.235Z,94732.61
2022-08-17T03:20:18.248Z,94727.28
2022-08-17T03:21:18.224Z,94724.62
2022-08-17T03:22:35.848Z,94729.96
2022-08-17T03:23:18.219Z,94730.54
2022-08-17T03:24:18.196Z,94724.72
2022-08-17T03:25:19.594Z,94724.55
2022-08-17T03:26:18.198Z,94724.56
2022-08-17T03:27:18.168Z,94725.00
2022-08-17T03:28:18.193Z,94725.12
2022-08-17T03:29:18.148Z,94726.50
2022-08-17T03:30:18.165Z,94724.42
2022-08-17T03:31:18.142Z,94732.01
2022-08-17T03:32:18.130Z,94727.29
2022-08-17T03:33:18.125Z,94725.49
2022-08-17T03:34:18.144Z,94722.48
2022-08-17T03:35:18.101Z,94719.62
2022-08-17T03:36:18.102Z,94714.47
2022-08-17T03:37:18.095Z,94710.34
2022-08-17T03:38:18.075Z,94714.47
2022-08-17T03:39:18.076Z,94714.97
2022-08-17T03:40:18.087Z,94721.33
2022-08-17T03:41:18.056Z,94722.62
2022-08-17T03:42:31.929Z,94727.39
2022-08-17T03:43:18.039Z,94728.91
2022-08-17T03:44:18.039Z,94729.03
2022-08-17T03:45:18.029Z,94730.95
2022-08-17T03:46:27.866Z,94730.31
2022-08-17T03:47:17.996Z,94733.70
2022-08-17T03:48:17.997Z,94733.72
2022-08-17T03:49:17.990Z,94738.95
2022-08-17T03:50:17.982Z,94737.45
2022-08-17T03:51:17.959Z,94737.05
2022-08-17T03:52:17.990Z,94738.41
2022-08-17T03:53:17.952Z,94743.37
2022-08-17T03:54:17.930Z,94745.73
2022-08-17T03:55:17.945Z,94745.75
2022-08-17T03:56:17.931Z,94745.12
2022-08-17T03:57:17.910Z,94744.05
2022-08-17T03:58:17.934Z,94745.56
2022-08-17T03:59:20.975Z,94745.45
2022-08-17T04:00:17.912Z,94743.58
2022-08-17T04:01:17.989Z,94745.33
2022-08-17T04:02:17.875Z,94741.08
2022-08-17T04:03:17.863Z,94742.81
2022-08-17T04:04:17.853Z,94744.16
2022-08-17T04:05:17.857Z,94744.41
2022-08-17T04:06:17.824Z,94741.86
2022-08-17T04:07:17.825Z,94749.98
2022-08-17T04:08:17.814Z,94750.03
2022-08-17T04:09:17.805Z,94752.38
2022-08-17T04:10:17.810Z,94754.53
2022-08-17T04:11:17.786Z,94752.16
2022-08-17T04:12:17.789Z,94764.40
2022-08-17T04:13:25.687Z,94751.92
2022-08-17T04:14:17.757Z,94755.88
2022-08-17T04:15:17.758Z,94757.77
2022-08-17T04:16:17.781Z,94759.66
2022-08-17T04:17:17.739Z,94759.19
2022-08-17T04:18:17.729Z,94754.40
2022-08-17T04:19:17.719Z,94751.81
2022-08-17T04:20:17.721Z,94753.92
2022-08-17T04:21:17.714Z,94747.38
2022-08-17T04:22:30.152Z,94751.03
2022-08-17T04:23:17.681Z,94748.29
2022-08-17T04:24:17.685Z,94745.56
2022-08-17T04:25:17.662Z,94747.22
2022-08-17T04:26:52.241Z,94748.36
2022-08-17T04:27:17.666Z,94753.27
2022-08-17T04:28:17.656Z,94749.32
2022-08-17T04:29:17.637Z,94758.67
2022-08-17T04:30:17.614Z,94760.73
2022-08-17T04:31:17.615Z,94760.31
2022-08-17T04:32:21.749Z,94763.61
2022-08-17T04:33:17.612Z,94770.50
2022-08-17T04:34:19.578Z,94773.27
2022-08-17T04:35:17.589Z,94775.55
2022-08-17T04:36:17.581Z,94775.39
2022-08-17T04:37:17.559Z,94773.30
2022-08-17T04:38:17.550Z,94780.92
2022-08-17T04:39:17.550Z,94778.17
2022-08-17T04:40:17.560Z,94779.50
2022-08-17T04:41:17.528Z,94779.39
2022-08-17T04:42:17.523Z,94784.24
2022-08-17T04:43:18.653Z,94783.41
2022-08-17T04:44:27.229Z,94777.98
2022-08-17T04:45:17.490Z,94782.19
2022-08-17T04:46:17.501Z,94782.02
2022-08-17T04:47:17.484Z,94778.09
2022-08-17T04:48:17.478Z,94774.48
2022-08-17T04:49:17.451Z,94769.05
2022-08-17T04:50:17.456Z,94772.78
2022-08-17T04:51:17.454Z,94768.82
2022-08-17T04:52:29.737Z,94776.86
2022-08-17T04:53:17.437Z,94782.98
2022-08-17T04:54:17.404Z,94780.93
2022-08-17T04:55:17.418Z,94777.30
2022-08-17T04:56:18.315Z,94779.89
2022-08-17T04:57:17.399Z,94787.16
2022-08-17T04:58:17.480Z,94785.45
2022-08-17T04:59:17.379Z,94784.41
2022-08-17T05:00:17.357Z,94792.55
2022-08-17T05:01:17.408Z,94794.27
2022-08-17T05:02:17.350Z,94794.81
2022-08-17T05:03:17.342Z,94800.86
2022-08-17T05:04:32.996Z,94805.00
2022-08-17T05:05:17.319Z,94807.91
2022-08-17T05:06:17.313Z,94809.74
2022-08-17T05:07:22.580Z,94809.59
2022-08-17T05:08:17.304Z,94821.59
2022-08-17T05:09:17.295Z,94818.64
2022-08-17T05:10:17.276Z,94824.34
2022-08-17T05:11:17.275Z,94828.28
2022-08-17T05:12:17.270Z,94825.62
2022-08-17T05:13:17.255Z,94836.91
2022-08-17T05:14:17.246Z,94837.34
2022-08-17T05:15:17.237Z,94843.92
2022-08-17T05:16:17.233Z,94843.52
2022-08-17T05:17:17.227Z,94841.10
2022-08-17T05:18:17.197Z,94849.03
2022-08-17T05:19:17.212Z,94842.41
2022-08-17T05:20:17.184Z,94845.52
2022-08-17T05:21:17.189Z,94847.62
2022-08-17T05:22:17.190Z,94846.67
2022-08-17T05:23:17.156Z,94848.75
2022-08-17T05:24:40.753Z,94843.52
2022-08-17T05:25:17.151Z,94838.17
2022-08-17T05:26:26.190Z,94840.09
2022-08-17T05:27:19.080Z,94838.06
2022-08-17T05:28:17.142Z,94840.03
2022-08-17T05:29:17.123Z,94837.67
2022-08-17T05:30:17.089Z,94841.29
2022-08-17T05:31:17.115Z,94839.12
2022-08-17T05:32:39.221Z,94844.66
2022-08-17T05:33:17.084Z,94846.06
2022-08-17T05:34:17.071Z,94845.48
2022-08-17T05:35:17.051Z,94850.91
2022-08-17T05:36:38.071Z,94850.16
2022-08-17T05:37:17.041Z,94848.18
2022-08-17T05:38:17.023Z,94845.89
2022-08-17T05:39:17.477Z,94832.72
2022-08-17T05:40:17.016Z,94839.02
2022-08-17T05:41:17.018Z,94834.56
2022-08-17T05:42:16.985Z,94834.83
2022-08-17T05:43:16.999Z,94832.36
2022-08-17T05:44:16.967Z,94841.27
2022-08-17T05:45:16.966Z,94839.38
2022-08-17T05:46:16.966Z,94840.09
2022-08-17T05:47:16.955Z,94841.37
2022-08-17T05:48:16.954Z,94839.88
2022-08-17T05:49:16.929Z,94836.84
2022-08-17T05:50:18.041Z,94840.32
2022-08-17T05:51:16.924Z,94837.31
2022-08-17T05:52:20.129Z,94837.07
2022-08-17T05:53:16.921Z,94836.09
2022-08-17T05:54:16.890Z,94832.66
2022-08-17T05:55:16.881Z,94835.18
2022-08-17T05:56:29.722Z,94833.20
2022-08-17T05:57:16.862Z,94837.12
2022-08-17T05:58:16.853Z,94835.22
2022-08-17T05:59:16.848Z,94840.57
2022-08-17T06:00:16.847Z,94837.13
2022-08-17T06:01:16.914Z,94837.14
2022-08-17T06:02:16.814Z,94841.12
2022-08-17T06:03:16.803Z,94837.16
2022-08-17T06:04:16.828Z,94838.06
2022-08-17T06:05:16.807Z,94832.46
2022-08-17T06:06:16.776Z,94833.38
2022-08-17T06:07:16.790Z,94833.16
2022-08-17T06:08:16.766Z,94834.91
2022-08-17T06:09:21.186Z,94837.79
2022-08-17T06:10:16.771Z,94830.33
2022-08-17T06:11:16.751Z,94836.24
2022-08-17T06:12:19.707Z,94832.30
2022-08-17T06:13:16.720Z,94834.62
2022-08-17T06:14:16.708Z,94839.50
2022-08-17T06:15:16.699Z,94851.14
2022-08-17T06:16:33.627Z,94851.52
2022-08-17T06:17:16.702Z,94850.33
2022-08-17T06:18:19.146Z,94844.11
2022-08-17T06:19:16.670Z,94840.91
2022-08-17T06:20:16.661Z,94840.80
2022-08-17T06:21:16.653Z,94842.36
2022-08-17T06:22:16.671Z,94840.23
2022-08-17T06:23:16.647Z,94846.23
2022-08-17T06:24:16.642Z,94844.52
2022-08-17T06:25:16.613Z,94847.48
2022-08-17T06:26:16.603Z,94846.02
2022-08-17T06:27:16.595Z,94849.77
2022-08-17T06:28:16.628Z,94850.48
2022-08-17T06:29:18.883Z,94847.50
2022-08-17T06:30:16.566Z,94847.77
2022-08-17T06:31:16.569Z,94847.94
2022-08-17T06:32:16.555Z,94847.97
2022-08-17T06:33:16.548Z,94842.94
2022-08-17T06:34:16.563Z,94840.09
2022-08-17T06:35:16.530Z,94843.31
2022-08-17T06:36:16.518Z,94833.46
2022-08-17T06:37:16.509Z,94840.63
2022-08-17T06:38:38.363Z,94829.82
2022-08-17T06:39:16.505Z,94830.71
2022-08-17T06:40:16.575Z,94823.28
2022-08-17T06:41:16.491Z,94831.16
2022-08-17T06:43:02.465Z,94821.16
2022-08-17T06:43:16.476Z,94822.98
2022-08-17T06:44:43.211Z,94824.28
2022-08-17T06:45:16.443Z,94825.94
2022-08-17T06:46:16.443Z,94830.45
2022-08-17T06:47:16.424Z,94831.41
2022-08-17T06:48:16.429Z,94830.38
2022-08-17T06:49:16.418Z,94832.69
2022-08-17T06:50:16.408Z,94835.29
2022-08-17T06:51:16.406Z,94832.55
2022-08-17T06:52:42.112Z,94837.72
2022-08-17T06:53:16.380Z,94842.05
2022-08-17T06:54:16.357Z,94834.52
2022-08-17T06:55:18.965Z,94839.72
2022-08-17T06:56:16.338Z,94836.61
2022-08-17T06:57:16.352Z,94836.17
2022-08-17T06:58:16.974Z,94836.09
2022-08-17T06:59:16.332Z,94837.92
2022-08-17T07:00:16.307Z,94826.92
2022-08-17T07:01:16.372Z,94815.84
2022-08-17T07:02:16.288Z,94808.58
2022-08-17T07:03:16.294Z,94810.05
2022-08-17T07:04:16.290Z,94807.81
2022-08-17T07:05:16.281Z,94798.81
2022-08-17T07:06:16.265Z,94801.16
2022-08-17T07:07:16.243Z,94797.42
2022-08-17T07:08:16.245Z,94798.00
2022-08-17T07:09:16.250Z,94805.35
2022-08-17T07:10:16.237Z,94806.12
2022-08-17T07:11:16.229Z,94808.98
2022-08-17T07:12:16.209Z,94813.22
2022-08-17T07:13:16.195Z,94814.75
2022-08-17T07:14:17.504Z,94815.20
2022-08-17T07:15:16.176Z,94825.48
2022-08-17T07:16:16.199Z,94828.09
2022-08-17T07:17:16.170Z,94831.91
2022-08-17T07:18:16.146Z,94832.94
2022-08-17T07:19:16.147Z,94834.06
2022-08-17T07:20:16.171Z,94839.60
2022-08-17T07:21:18.526Z,94835.89
2022-08-17T07:22:16.141Z,94842.94
2022-08-17T07:23:16.121Z,94835.22
2022-08-17T07:24:29.213Z,94838.15
2022-08-17T07:25:16.123Z,94843.02
2022-08-17T07:26:16.079Z,94838.05
2022-08-17T07:27:16.072Z,94833.73
2022-08-17T07:28:16.072Z,94830.52
2022-08-17T07:29:16.067Z,94829.31
2022-08-17T07:30:16.057Z,94829.64
2022-08-17T07:31:16.034Z,94822.95
2022-08-17T07:32:16.023Z,94823.13
2022-08-17T07:33:16.036Z,94816.19
2022-08-17T07:34:16.027Z,94807.18
2022-08-17T07:35:16.024Z,94806.81
2022-08-17T07:36:15.989Z,94808.88
2022-08-17T07:37:15.985Z,94807.09
2022-08-17T07:38:25.506Z,94810.20
2022-08-17T07:39:15.980Z,94819.59
2022-08-17T07:40:16.945Z,94818.45
2022-08-17T07:41:15.962Z,94813.31
2022-08-17T07:42:15.951Z,94813.89
2022-08-17T07:43:21.821Z,94819.01
2022-08-17T07:44:15.933Z,94813.69
2022-08-17T07:45:15.931Z,94810.69
2022-08-17T07:46:15.920Z,94805.97
2022-08-17T07:47:15.902Z,94807.88
2022-08-17T07:48:15.888Z,94806.46
2022-08-17T07:49:15.881Z,94798.56
2022-08-17T07:50:15.862Z,94802.53
2022-08-17T07:51:15.863Z,94803.14
2022-08-17T07:52:48.436Z,94800.10
2022-08-17T07:53:15.843Z,94800.16
2022-08-17T07:54:15.862Z,94804.05
2022-08-17T07:55:15.839Z,94809.72
2022-08-17T07:56:15.814Z,94813.36
2022-08-17T07:57:15.807Z,94808.16
2022-08-17T07:58:15.820Z,94812.29
2022-08-17T07:59:15.810Z,94812.42
2022-08-17T08:00:16.347Z,94811.17
2022-08-17T08:01:15.844Z,94803.33
2022-08-17T08:02:16.866Z,94807.66
2022-08-17T08:03:15.758Z,94802.73
2022-08-17T08:04:19.374Z,94796.73
2022-08-17T08:05:15.738Z,94787.44
2022-08-17T08:06:15.729Z,94783.23
2022-08-17T08:07:15.721Z,94781.49
2022-08-17T08:08:15.724Z,94784.75
2022-08-17T08:09:15.715Z,94788.92
2022-08-17T08:10:15.725Z,94790.91
2022-08-17T08:11:15.795Z,94788.00
2022-08-17T08:12:15.983Z,94791.83
2022-08-17T08:13:15.662Z,94790.43
2022-08-17T08:14:15.676Z,94792.81
2022-08-17T08:15:15.645Z,94795.50
2022-08-17T08:16:15.685Z,94795.20
2022-08-17T08:17:15.645Z,94792.25
2022-08-17T08:18:15.639Z,94795.98
2022-08-17T08:19:20.536Z,94795.69
2022-08-17T08:20:42.507Z,94793.08
2022-08-17T08:21:15.613Z,94795.72
2022-08-17T08:22:15.606Z,94798.16
2022-08-17T08:23:15.591Z,94796.72
2022-08-17T08:24:15.577Z,94794.46
2022-08-17T08:25:15.585Z,94799.55
2022-08-17T08:26:18.608Z,94798.63
2022-08-17T08:27:15.554Z,94794.56
2022-08-17T08:28:15.563Z,94801.11
2022-08-17T08:29:15.527Z,94799.73
2022-08-17T08:30:15.534Z,94798.89
2022-08-17T08:31:15.512Z,94804.80
2022-08-17T08:32:15.525Z,94802.20
2022-08-17T08:33:15.493Z,94800.55
2022-08-17T08:34:58.958Z,94798.94
2022-08-17T08:35:15.474Z,94799.73
2022-08-17T08:37:14.314Z,94799.90
2022-08-17T08:37:22.612Z,94814.27
2022-08-17T08:38:15.456Z,94806.59
2022-08-17T08:39:15.457Z,94809.19
2022-08-17T08:40:15.550Z,94811.75
2022-08-17T08:41:15.426Z,94808.41
2022-08-17T08:42:15.433Z,94812.70
2022-08-17T08:43:15.408Z,94808.92
2022-08-17T08:44:15.420Z,94808.79
2022-08-17T08:45:15.388Z,94815.69
2022-08-17T08:46:15.510Z,94814.44
2022-08-17T08:47:15.393Z,94817.86
2022-08-17T08:48:46.167Z,94816.11
2022-08-17T08:49:15.374Z,94816.45
2022-08-17T08:50:37.142Z,94821.84
2022-08-17T08:51:15.354Z,94822.02
2022-08-17T08:52:15.351Z,94818.03
2022-08-17T08:53:15.335Z,94823.85
2022-08-17T08:54:15.322Z,94818.03
2022-08-17T08:55:15.317Z,94823.41
2022-08-17T08:56:15.323Z,94824.09
2022-08-17T08:57:26.914Z,94826.61
2022-08-17T08:58:31.973Z,94831.17
2022-08-17T08:59:15.274Z,94832.02
2022-08-17T09:00:15.290Z,94835.72
2022-08-17T09:01:16.999Z,94835.28
2022-08-17T09:02:15.269Z,94840.50
2022-08-17T09:03:15.262Z,94841.55
2022-08-17T09:04:24.601Z,94843.06
2022-08-17T09:05:15.999Z,94842.72
2022-08-17T09:06:28.682Z,94840.20
2022-08-17T09:07:15.221Z,94843.81
2022-08-17T09:08:15.210Z,94840.72
2022-08-17T09:09:15.199Z,94837.59
2022-08-17T09:10:15.210Z,94838.50
2022-08-17T09:11:15.193Z,94842.41
2022-08-17T09:12:15.178Z,94847.32
2022-08-17T09:13:15.161Z,94845.48
2022-08-17T09:14:21.157Z,94846.61
2022-08-17T09:15:15.153Z,94843.36
2022-08-17T09:16:15.165Z,94837.27
2022-08-17T09:17:15.173Z,94835.09
2022-08-17T09:19:01.748Z,94831.52
2022-08-17T09:19:15.114Z,94822.14
2022-08-17T09:20:27.448Z,94826.50
2022-08-17T09:21:15.111Z,94821.23
2022-08-17T09:22:15.127Z,94823.19
2022-08-17T09:23:15.099Z,94826.72
2022-08-17T09:24:15.078Z,94828.06
2022-08-17T09:25:15.066Z,94827.11
2022-08-17T09:26:15.058Z,94827.80
2022-08-17T09:27:15.051Z,94825.85
2022-08-17T09:28:15.071Z,94833.97
2022-08-17T09:29:15.052Z,94839.86
2022-08-17T09:30:15.044Z,94837.78
2022-08-17T09:31:15.009Z,94832.30
2022-08-17T09:32:15.023Z,94832.88
2022-08-17T09:33:14.999Z,94832.52
2022-08-17T09:34:15.012Z,94838.55
2022-08-17T09:35:14.995Z,94843.20
2022-08-17T09:36:14.995Z,94845.85
2022-08-17T09:37:14.976Z,94839.50
2022-08-17T09:38:14.955Z,94837.16
2022-08-17T09:39:14.943Z,94844.84
2022-08-17T09:40:15.051Z,94843.27
2022-08-17T09:41:14.932Z,94841.78
2022-08-17T09:42:14.924Z,94845.56
2022-08-17T09:43:14.928Z,94849.05
2022-08-17T09:44:23.084Z,94851.81
2022-08-17T09:45:14.912Z,94839.95
2022-08-17T09:46:14.920Z,94837.23
2022-08-17T09:47:14.877Z,94835.02
2022-08-17T09:48:14.870Z,94834.96
2022-08-17T09:49:14.873Z,94836.78
2022-08-17T09:50:14.859Z,94841.38
2022-08-17T09:51:14.854Z,94843.88
2022-08-17T09:52:14.875Z,94839.38
2022-08-17T09:53:14.824Z,94841.81
2022-08-17T09:54:37.621Z,94846.38
2022-08-17T09:55:14.825Z,94841.64
2022-08-17T09:56:14.801Z,94840.09
2022-08-17T09:57:31.677Z,94838.87
2022-08-17T09:58:14.893Z,94836.70
2022-08-17T09:59:14.774Z,94831.39
2022-08-17T10:00:14.860Z,94832.59
2022-08-17T10:01:14.821Z,94832.77
2022-08-17T10:02:14.757Z,94831.28
2022-08-17T10:03:14.735Z,94830.39
2022-08-17T10:04:16.146Z,94832.48
2022-08-17T10:05:14.732Z,94836.06
2022-08-17T10:06:14.730Z,94832.93
2022-08-17T10:07:14.706Z,94834.75
2022-08-17T10:08:14.697Z,94835.78
2022-08-17T10:09:14.701Z,94833.69
2022-08-17T10:10:14.806Z,94831.47
2022-08-17T10:11:14.683Z,94832.70
2022-08-17T10:12:15.690Z,94835.01
2022-08-17T10:13:14.662Z,94834.84
2022-08-17T10:14:36.703Z,94835.84
2022-08-17T10:15:14.744Z,94838.77
2022-08-17T10:16:14.649Z,94848.18
2022-08-17T10:17:14.634Z,94842.96
2022-08-17T10:18:14.628Z,94846.39
2022-08-17T10:19:14.617Z,94845.76
2022-08-17T10:20:14.710Z,94842.66
2022-08-17T10:21:14.584Z,94840.88
2022-08-17T10:22:35.043Z,94834.45
2022-08-17T10:23:14.584Z,94832.22
2022-08-17T10:24:14.581Z,94834.91
2022-08-17T10:25:23.980Z,94835.61
2022-08-17T10:26:14.560Z,94836.27
2022-08-17T10:27:14.537Z,94836.69
2022-08-17T10:28:15.872Z,94837.94
2022-08-17T10:29:14.539Z,94839.23
2022-08-17T10:30:14.527Z,94827.66
2022-08-17T10:31:34.249Z,94829.16
2022-08-17T10:32:14.538Z,94824.97
2022-08-17T10:33:14.479Z,94834.44
2022-08-17T10:34:14.512Z,94835.66
2022-08-17T10:35:14.475Z,94830.52
2022-08-17T10:36:14.460Z,94832.13
2022-08-17T10:37:14.450Z,94833.86
2022-08-17T10:38:14.465Z,94827.77
2022-08-17T10:39:14.446Z,94834.41
2022-08-17T10:40:14.568Z,94838.31
2022-08-17T10:41:14.413Z,94836.98
2022-08-17T10:42:14.456Z,94840.91
2022-08-17T10:43:14.403Z,94846.03
2022-08-17T10:44:38.144Z,94844.73
2022-08-17T10:45:14.387Z,94844.73
2022-08-17T10:46:31.228Z,94843.16
2022-08-17T10:47:14.366Z,94846.74
2022-08-17T10:48:14.406Z,94851.17
2022-08-17T10:49:14.346Z,94851.08
2022-08-17T10:50:14.346Z,94851.39
2022-08-17T10:51:14.345Z,94854.00
2022-08-17T10:52:14.436Z,94846.85
2022-08-17T10:53:19.400Z,94849.11
2022-08-17T10:54:14.322Z,94848.06
2022-08-17T10:55:14.301Z,94849.11
2022-08-17T10:56:14.325Z,94839.54
2022-08-17T10:57:14.281Z,94843.62
2022-08-17T10:58:14.295Z,94842.31
2022-08-17T10:59:14.261Z,94844.72
2022-08-17T11:00:14.263Z,94845.57
2022-08-17T11:01:14.349Z,94843.31
2022-08-17T11:02:14.309Z,94851.78
2022-08-17T11:03:14.232Z,94852.47
2022-08-17T11:04:14.252Z,94860.30
2022-08-17T11:05:14.213Z,94857.22
2022-08-17T11:06:14.221Z,94850.41
2022-08-17T11:07:14.210Z,94847.02
2022-08-17T11:08:14.208Z,94849.27
2022-08-17T11:09:14.177Z,94850.41
2022-08-17T11:10:14.212Z,94851.71
2022-08-17T11:11:14.156Z,94850.16
2022-08-17T11:12:14.158Z,94852.44
2022-08-17T11:13:14.161Z,94848.48
2022-08-17T11:14:14.138Z,94847.42
2022-08-17T11:15:14.147Z,94848.95
2022-08-17T11:16:14.143Z,94856.00
2022-08-17T11:17:14.109Z,94860.42
2022-08-17T11:18:14.112Z,94869.55
2022-08-17T11:19:14.090Z,94872.38
2022-08-17T11:20:14.107Z,94868.02
2022-08-17T11:21:14.081Z,94861.75
2022-08-17T11:22:14.095Z,94864.45
2022-08-17T11:23:14.063Z,94858.88
2022-08-17T11:24:14.076Z,94857.41
2022-08-17T11:25:14.043Z,94852.36
2022-08-17T11:26:14.049Z,94850.19
2022-08-17T11:27:14.045Z,94849.50
2022-08-17T11:28:14.062Z,94853.58
2022-08-17T11:29:14.015Z,94851.16
2022-08-17T11:30:14.015Z,94853.59
2022-08-17T11:31:13.997Z,94849.38
2022-08-17T11:32:14.077Z,94846.69
2022-08-17T11:33:13.977Z,94850.64
2022-08-17T11:34:13.987Z,94846.81
2022-08-17T11:35:13.969Z,94844.47
2022-08-17T11:36:13.979Z,94843.01
2022-08-17T11:37:13.962Z,94839.17
2022-08-17T11:38:16.086Z,94838.30
2022-08-17T11:39:13.952Z,94829.70
2022-08-17T11:40:13.975Z,94837.00
2022-08-17T11:41:13.919Z,94835.25
2022-08-17T11:42:13.925Z,94838.74
2022-08-17T11:43:13.902Z,94835.17
2022-08-17T11:44:13.906Z,94836.05